Time;durP1;ratioP1;P1;durP2;ratioP2;P2;SDS_P1;SDS_P2;PMS_P1;PMS_P2;Temp;Humidity;BMP_temperature;BMP_pressure;BME280_temperature;BME280_humidity;BME280_pressure;Samples;Min_cycle;Max_cycle;Signal;HPM_P1;HPM_P2
2021/05/13 07:32:31;;;;;;;18.25;3.35;;;11.60;99.90;;;;;;6159538;23;20016;-86
2021/05/13 07:34:58;;;;;;;23.08;5.25;;;11.50;99.90;;;;;;6211461;23;20017;-84
2021/05/13 07:37:26;;;;;;;18.83;3.05;;;11.50;99.90;;;;;;6210528;23;20020;-84
2021/05/13 07:39:53;;;;;;;13.98;3.20;;;11.50;99.90;;;;;;6211323;23;20021;-85
2021/05/13 07:42:20;;;;;;;15.32;2.40;;;11.50;99.90;;;;;;6210217;23;20016;-84
2021/05/13 07:44:47;;;;;;;12.63;2.20;;;11.40;99.90;;;;;;6211467;23;20024;-83
2021/05/13 07:47:14;;;;;;;13.82;2.28;;;11.50;99.90;;;;;;6210626;23;20537;-84
2021/05/13 07:49:41;;;;;;;14.38;1.80;;;11.50;99.90;;;;;;6213061;23;20016;-82
2021/05/13 07:52:08;;;;;;;9.07;1.58;;;11.50;99.90;;;;;;6212224;23;20017;-85
2021/05/13 07:54:35;;;;;;;11.82;3.63;;;11.50;99.90;;;;;;6210612;23;20451;-84
2021/05/13 07:57:06;;;;;;;8.05;1.67;;;11.50;99.90;;;;;;6212742;23;20133;-87
2021/05/13 07:59:36;;;;;;;5.15;1.25;;;11.50;99.90;;;;;;6210799;23;20071;-86
2021/05/13 08:02:04;;;;;;;7.43;1.30;;;11.50;99.90;;;;;;6211794;23;20066;-90
2021/05/13 08:04:31;;;;;;;6.57;1.80;;;11.60;99.90;;;;;;6212239;23;20024;-90
2021/05/13 08:06:58;;;;;;;6.90;1.77;;;11.60;99.90;;;;;;6212271;23;20301;-91
2021/05/13 08:09:24;;;;;;;7.55;1.20;;;11.60;99.90;;;;;;6210744;23;20459;-89
2021/05/13 08:11:51;;;;;;;6.80;1.27;;;11.70;99.90;;;;;;6212505;23;20463;-89
2021/05/13 08:14:18;;;;;;;7.75;1.35;;;11.70;99.90;;;;;;6210953;23;20505;-87
2021/05/13 08:16:45;;;;;;;10.25;1.90;;;11.90;99.90;;;;;;6210431;23;20526;-84
2021/05/13 08:19:12;;;;;;;10.18;1.63;;;12.20;99.90;;;;;;6211560;23;20438;-85
2021/05/13 08:21:39;;;;;;;13.43;2.42;;;12.30;99.90;;;;;;6210548;23;20020;-84
2021/05/13 08:24:06;;;;;;;10.38;2.13;;;12.50;99.90;;;;;;6212089;23;20024;-87
2021/05/13 08:26:33;;;;;;;6.85;1.65;;;12.70;99.90;;;;;;6213031;23;20408;-86
2021/05/13 08:29:01;;;;;;;7.72;1.70;;;12.80;99.90;;;;;;6211476;23;20017;-86
2021/05/13 08:31:27;;;;;;;8.68;1.60;;;12.80;99.90;;;;;;6203687;23;20080;-86
2021/05/13 08:33:54;;;;;;;9.45;1.65;;;12.80;99.90;;;;;;6181503;23;20088;-85
2021/05/13 08:36:21;;;;;;;10.48;2.97;;;12.90;99.90;;;;;;6182562;23;20014;-88
2021/05/13 08:38:48;;;;;;;12.77;2.22;;;12.90;99.90;;;;;;6180776;23;20032;-88
2021/05/13 08:41:15;;;;;;;13.65;2.17;;;13.10;99.90;;;;;;6181372;23;20053;-87
2021/05/13 08:43:49;;;;;;;9.60;1.85;;;13.20;99.90;;;;;;6179044;23;20138;-85
2021/05/13 08:46:17;;;;;;;9.77;1.70;;;13.30;99.90;;;;;;6179845;23;20285;-85
2021/05/13 08:48:45;;;;;;;9.20;1.90;;;13.30;99.90;;;;;;6180444;23;20087;-87
2021/05/13 08:51:13;;;;;;;7.72;1.73;;;13.30;99.90;;;;;;6179518;23;20020;-87
2021/05/13 08:53:57;;;;;;;9.73;1.95;;;13.30;99.90;;;;;;6180113;23;20400;-88
2021/05/13 08:56:26;;;;;;;7.65;1.45;;;13.40;99.90;;;;;;6179001;23;20028;-88
2021/05/13 08:58:56;;;;;;;15.93;2.10;;;13.40;99.90;;;;;;6178867;23;20120;-88
2021/05/13 09:01:24;;;;;;;8.68;1.70;;;13.50;99.90;;;;;;6179947;23;20021;-84
2021/05/13 09:03:55;;;;;;;6.93;1.52;;;13.50;99.90;;;;;;6180611;23;20076;-86
2021/05/13 09:06:41;;;;;;;7.40;1.35;;;13.40;99.90;;;;;;6179896;23;20031;-88
2021/05/13 09:09:17;;;;;;;7.38;1.70;;;13.40;99.90;;;;;;6181554;23;20021;-87
2021/05/13 09:11:55;;;;;;;7.90;1.55;;;13.40;99.90;;;;;;6180551;23;20021;-88
2021/05/13 09:14:33;;;;;;;8.77;2.22;;;13.40;99.90;;;;;;6182383;23;20538;-87
2021/05/13 09:17:00;;;;;;;6.05;1.35;;;13.30;99.90;;;;;;6181184;23;20017;-94
2021/05/13 09:19:30;;;;;;;8.60;2.00;;;13.20;99.90;;;;;;6184302;23;20021;-93
2021/05/13 09:22:04;;;;;;;9.95;2.03;;;13.10;99.90;;;;;;6186087;23;20029;-93
2021/05/13 09:24:50;;;;;;;6.25;1.38;;;13.00;99.90;;;;;;6181698;23;20017;-93
2021/05/13 09:27:25;;;;;;;6.22;1.55;;;13.00;99.90;;;;;;6182176;23;20033;-88
2021/05/13 09:30:01;;;;;;;8.90;1.38;;;12.90;99.90;;;;;;6184840;23;20017;-90
2021/05/13 09:32:28;;;;;;;7.18;1.50;;;12.80;99.90;;;;;;6181990;23;20021;-91
2021/05/13 09:34:55;;;;;;;5.75;1.27;;;12.70;99.90;;;;;;6185037;23;20815;-91
2021/05/13 09:37:43;;;;;;;5.13;1.10;;;12.70;99.90;;;;;;6184054;23;20028;-91
2021/05/13 09:40:11;;;;;;;6.25;1.60;;;12.80;99.90;;;;;;6181436;23;20021;-88
2021/05/13 09:42:39;;;;;;;4.25;1.20;;;12.80;99.90;;;;;;6181661;23;20017;-87
2021/05/13 09:45:08;;;;;;;4.65;1.10;;;13.00;99.90;;;;;;6181490;23;20075;-86
2021/05/13 09:47:37;;;;;;;6.63;1.35;;;13.00;99.90;;;;;;6182361;23;20009;-87
2021/05/13 09:50:11;;;;;;;4.70;1.20;;;13.10;99.90;;;;;;6181603;23;20025;-90
2021/05/13 09:52:57;;;;;;;3.92;1.05;;;13.20;99.90;;;;;;6182250;23;20024;-92
2021/05/13 09:55:27;;;;;;;4.22;1.10;;;13.20;99.90;;;;;;6182329;23;20404;-92
2021/05/13 09:58:05;;;;;;;4.05;1.60;;;13.20;99.90;;;;;;6183086;23;20083;-92
2021/05/13 10:00:36;;;;;;;4.35;1.58;;;13.20;99.90;;;;;;6152715;23;20013;-91
2021/05/13 10:03:18;;;;;;;3.97;1.40;;;13.20;99.90;;;;;;6152623;23;20014;-91
2021/05/13 10:05:52;;;;;;;5.50;1.25;;;13.20;99.90;;;;;;6172611;23;20020;-90
2021/05/13 10:08:19;;;;;;;4.50;1.17;;;13.20;99.90;;;;;;6182227;23;20064;-88
2021/05/13 10:10:48;;;;;;;4.93;1.27;;;13.00;99.90;;;;;;6183444;23;20012;-89
2021/05/13 10:13:18;;;;;;;5.50;1.02;;;12.90;99.90;;;;;;6184974;23;20349;-89
2021/05/13 10:15:47;;;;;;;4.03;1.00;;;12.80;99.90;;;;;;6184169;23;20468;-87
2021/05/13 10:18:35;;;;;;;5.00;1.20;;;12.80;99.90;;;;;;6183800;23;20017;-88
2021/05/13 10:21:14;;;;;;;5.25;1.38;;;12.80;99.90;;;;;;6183593;23;20460;-88
2021/05/13 10:23:43;;;;;;;6.60;1.35;;;12.70;99.90;;;;;;6182158;23;20013;-88
2021/05/13 10:26:42;;;;;;;5.38;1.30;;;12.70;99.90;;;;;;6182677;23;20020;-88
2021/05/13 10:29:24;;;;;;;6.05;1.17;;;12.70;99.90;;;;;;6181681;23;20075;-85
2021/05/13 10:32:16;;;;;;;3.45;1.40;;;12.60;99.90;;;;;;6183420;23;20028;-84
2021/05/13 10:34:49;;;;;;;5.90;1.70;;;12.50;99.90;;;;;;6184055;23;20017;-85
2021/05/13 10:37:37;;;;;;;3.92;1.50;;;12.50;99.90;;;;;;6183409;23;20104;-83
2021/05/13 10:40:19;;;;;;;4.00;1.08;;;12.50;99.90;;;;;;6183271;23;20017;-89
2021/05/13 10:42:56;;;;;;;5.93;1.50;;;12.60;99.90;;;;;;6183227;23;20076;-88
2021/05/13 10:45:26;;;;;;;3.25;0.90;;;12.50;99.90;;;;;;6186192;23;20025;-89
2021/05/13 10:48:14;;;;;;;5.72;0.95;;;12.50;99.90;;;;;;6187131;23;20021;-89
2021/05/13 10:50:49;;;;;;;4.13;0.98;;;12.50;99.90;;;;;;6184486;23;20017;-90
2021/05/13 10:53:34;;;;;;;6.15;1.42;;;12.50;99.90;;;;;;6186535;23;20063;-92
2021/05/13 10:56:11;;;;;;;6.65;1.25;;;12.60;99.90;;;;;;6188180;23;20097;-90
2021/05/13 10:59:03;;;;;;;5.63;1.30;;;12.60;99.90;;;;;;6187444;23;20071;-91
2021/05/13 11:01:49;;;;;;;3.90;0.93;;;12.70;99.90;;;;;;6188340;23;20020;-92
2021/05/13 11:04:22;;;;;;;4.45;1.10;;;12.70;99.90;;;;;;6187697;23;20020;-92
2021/05/13 11:06:58;;;;;;;3.58;1.00;;;12.80;99.90;;;;;;6187271;23;20515;-89
2021/05/13 11:09:47;;;;;;;4.00;1.20;;;12.80;99.90;;;;;;6185926;23;20437;-89
2021/05/13 11:12:23;;;;;;;6.40;1.10;;;12.90;99.90;;;;;;6183647;23;20024;-88
2021/05/13 11:17:42;;;;;;;3.88;0.70;;;13.00;99.90;;;;;;6185430;23;20472;-88
2021/05/13 11:20:38;;;;;;;2.08;0.80;;;13.10;99.90;;;;;;6184502;23;20017;-88
2021/05/13 11:23:07;;;;;;;2.10;0.70;;;13.20;99.90;;;;;;6184510;23;20470;-88
2021/05/13 11:25:42;;;;;;;1.70;0.45;;;13.20;99.90;;;;;;6184757;23;20071;-87
2021/05/13 11:28:33;;;;;;;4.20;1.02;;;13.20;99.90;;;;;;6183304;23;20452;-87
2021/05/13 11:31:08;;;;;;;5.50;1.02;;;13.30;99.90;;;;;;6182848;23;20013;-87
2021/05/13 11:33:44;;;;;;;2.63;0.68;;;13.30;99.90;;;;;;6184112;23;20020;-86
2021/05/13 11:36:16;;;;;;;3.08;0.90;;;13.50;99.90;;;;;;6185765;23;20021;-86
2021/05/13 11:38:49;;;;;;;5.15;0.88;;;13.70;99.90;;;;;;6185924;23;20021;-85
2021/05/13 11:41:17;;;;;;;2.47;0.70;;;13.80;99.90;;;;;;6183493;23;20071;-83
2021/05/13 11:43:46;;;;;;;4.00;0.88;;;14.00;99.90;;;;;;6183774;23;20032;-84
2021/05/13 11:46:18;;;;;;;3.40;0.85;;;14.20;99.90;;;;;;6183968;23;20016;-85
2021/05/13 11:48:48;;;;;;;3.92;0.85;;;14.30;99.90;;;;;;6184626;23;20318;-87
2021/05/13 11:51:19;;;;;;;3.42;0.73;;;14.40;99.90;;;;;;6183974;23;20020;-86
2021/05/13 11:53:48;;;;;;;4.70;1.00;;;14.40;99.90;;;;;;6185608;23;20025;-86
2021/05/13 11:56:16;;;;;;;2.95;0.90;;;14.20;99.90;;;;;;6180696;23;20114;-84
2021/05/13 11:58:48;;;;;;;3.05;0.90;;;14.00;99.90;;;;;;6182202;23;20013;-85
2021/05/13 12:01:18;;;;;;;7.88;1.10;;;13.80;99.90;;;;;;6179342;23;20013;-85
2021/05/13 12:03:47;;;;;;;4.00;0.98;;;13.90;99.90;;;;;;6183183;23;20040;-83
2021/05/13 12:06:14;;;;;;;3.13;0.82;;;14.20;99.90;;;;;;6182747;23;20072;-84
2021/05/13 12:08:41;;;;;;;4.82;1.00;;;14.30;99.90;;;;;;6183339;23;20021;-88
2021/05/13 12:11:25;;;;;;;6.30;1.00;;;14.30;99.90;;;;;;6183016;23;20017;-87
2021/05/13 12:13:54;;;;;;;3.00;0.88;;;14.30;99.90;;;;;;6183708;23;20043;-86
2021/05/13 12:16:23;;;;;;;3.53;0.80;;;14.20;99.90;;;;;;6183066;23;20393;-86
2021/05/13 12:18:53;;;;;;;4.25;0.90;;;14.30;99.90;;;;;;6183431;23;20020;-84
2021/05/13 12:21:20;;;;;;;4.60;0.70;;;14.50;99.90;;;;;;6182028;23;20021;-85
2021/05/13 12:23:48;;;;;;;4.22;0.95;;;14.60;99.90;;;;;;6180684;23;20021;-83
2021/05/13 12:26:28;;;;;;;2.03;0.70;;;14.70;99.90;;;;;;6179548;23;20349;-83
2021/05/13 12:28:56;;;;;;;4.90;1.00;;;14.80;99.90;;;;;;6180143;23;20369;-84
2021/05/13 12:31:28;;;;;;;4.43;1.23;;;14.90;99.90;;;;;;6178953;23;20036;-84
2021/05/13 12:33:57;;;;;;;3.45;0.95;;;14.90;99.90;;;;;;6180135;23;20105;-85
2021/05/13 12:36:24;;;;;;;5.32;1.20;;;15.10;99.90;;;;;;6181773;23;20013;-82
2021/05/13 12:38:55;;;;;;;3.72;1.08;;;15.20;99.90;;;;;;6181579;23;20067;-85
2021/05/13 12:41:26;;;;;;;3.55;0.80;;;15.30;99.90;;;;;;6180554;23;20025;-84
2021/05/13 12:44:07;;;;;;;3.90;0.93;;;15.50;99.90;;;;;;6181489;23;20017;-85
2021/05/13 12:46:42;;;;;;;3.17;0.90;;;15.50;99.90;;;;;;6180483;23;20013;-85
2021/05/13 12:49:23;;;;;;;3.13;0.90;;;15.40;99.90;;;;;;6182014;23;20386;-86
2021/05/13 12:52:07;;;;;;;3.40;0.90;;;15.60;99.90;;;;;;6182685;23;20025;-83
2021/05/13 12:54:37;;;;;;;3.95;1.00;;;15.60;99.90;;;;;;6184203;23;20075;-83
2021/05/13 12:57:16;;;;;;;3.08;0.73;;;15.60;99.90;;;;;;6183062;23;20453;-84
2021/05/13 12:59:55;;;;;;;5.43;0.90;;;15.40;99.90;;;;;;6183074;23;20017;-85
2021/05/13 13:02:23;;;;;;;3.58;0.95;;;15.50;99.90;;;;;;6184174;23;20545;-82
2021/05/13 13:05:02;;;;;;;4.03;0.85;;;15.50;99.90;;;;;;6184747;23;20071;-82
2021/05/13 13:07:38;;;;;;;5.35;1.08;;;15.50;99.90;;;;;;6182765;23;20020;-82
2021/05/13 13:10:33;;;;;;;3.35;1.00;;;15.50;99.90;;;;;;6182698;23;20017;-82
2021/05/13 13:13:14;;;;;;;4.38;0.95;;;15.50;99.90;;;;;;6185280;23;20095;-82
2021/05/13 13:15:53;;;;;;;4.40;1.13;;;15.50;99.90;;;;;;6184511;23;20016;-83
2021/05/13 13:18:24;;;;;;;4.53;1.45;;;15.50;99.90;;;;;;6182580;23;20317;-86
2021/05/13 13:20:52;;;;;;;3.50;1.38;;;15.60;99.90;;;;;;6184924;23;20017;-84
2021/05/13 13:23:29;;;;;;;3.33;1.40;;;15.60;99.90;;;;;;6182617;23;20021;-84
2021/05/13 13:26:03;;;;;;;4.65;1.60;;;15.60;99.90;;;;;;6183227;23;20075;-82
2021/05/13 13:28:32;;;;;;;6.07;1.90;;;15.90;99.90;;;;;;6170920;23;20020;-85
2021/05/13 13:31:03;;;;;;;5.70;2.00;;;16.00;99.90;;;;;;6184598;23;20013;-84
2021/05/13 13:33:32;;;;;;;6.53;1.77;;;16.00;99.90;;;;;;6172311;23;20017;-84
2021/05/13 13:36:01;;;;;;;4.20;1.55;;;16.00;99.90;;;;;;6184615;23;20024;-84
2021/05/13 13:38:28;;;;;;;4.65;1.42;;;16.10;99.90;;;;;;6182565;23;20021;-85
2021/05/13 13:40:58;;;;;;;3.42;1.38;;;16.00;99.90;;;;;;6183343;23;20036;-85
2021/05/13 13:43:28;;;;;;;5.90;1.55;;;16.00;99.90;;;;;;6183879;23;20017;-83
2021/05/13 13:45:58;;;;;;;3.95;1.17;;;15.90;99.90;;;;;;6184616;23;20013;-83
2021/05/13 13:48:25;;;;;;;3.67;1.30;;;15.90;99.90;;;;;;6182410;23;20092;-82
2021/05/13 13:50:55;;;;;;;5.45;1.17;;;15.90;99.90;;;;;;6184464;23;20055;-84
2021/05/13 13:53:24;;;;;;;3.53;1.00;;;15.90;99.90;;;;;;6182582;23;20472;-84
2021/05/13 13:55:53;;;;;;;4.18;0.93;;;16.00;99.90;;;;;;6184399;23;20017;-84
2021/05/13 13:58:20;;;;;;;3.17;1.00;;;15.90;99.90;;;;;;6182601;23;20017;-83
2021/05/13 14:00:49;;;;;;;3.17;0.70;;;15.70;99.90;;;;;;6184526;23;20048;-81
2021/05/13 14:03:16;;;;;;;;;;;15.70;99.90;;;;;;6184358;23;20377;-81
2021/05/13 14:05:43;;;;;;;2.28;0.68;;;15.60;99.90;;;;;;6184362;23;19979;-85
2021/05/13 14:08:11;;;;;;;3.28;1.10;;;15.70;99.90;;;;;;6182321;23;20469;-84
2021/05/13 14:10:39;;;;;;;2.00;0.70;;;15.50;99.90;;;;;;6184238;23;20068;-82
2021/05/13 14:13:05;;;;;;;3.28;0.68;;;15.30;99.90;;;;;;6183853;23;20336;-80
2021/05/13 14:15:32;;;;;;;2.10;0.60;;;15.20;99.90;;;;;;6182841;23;20392;-83
2021/05/13 14:17:59;;;;;;;2.53;0.82;;;15.30;99.90;;;;;;6183844;23;20017;-81
2021/05/13 14:20:26;;;;;;;2.35;0.70;;;15.20;99.90;;;;;;6183718;23;20021;-83
2021/05/13 14:22:53;;;;;;;1.08;0.50;;;15.20;99.90;;;;;;6182829;23;20017;-82
2021/05/13 14:25:20;;;;;;;3.38;0.80;;;15.10;99.90;;;;;;6182231;23;20025;-82
2021/05/13 14:27:47;;;;;;;2.50;0.70;;;15.10;99.90;;;;;;6182935;23;20017;-83
2021/05/13 14:30:15;;;;;;;3.50;0.90;;;15.10;99.90;;;;;;6183717;23;20021;-82
2021/05/13 14:32:46;;;;;;;3.87;0.93;;;15.10;99.90;;;;;;6182225;23;20021;-82
2021/05/13 14:35:20;;;;;;;3.92;0.80;;;15.20;99.90;;;;;;6182255;23;20017;-80
2021/05/13 14:37:55;;;;;;;4.93;1.08;;;15.30;99.90;;;;;;6182608;23;20461;-82
2021/05/13 14:40:23;;;;;;;4.80;0.90;;;15.30;99.90;;;;;;6182052;23;20024;-79
2021/05/13 14:42:51;;;;;;;4.85;1.13;;;15.40;99.90;;;;;;6184080;23;20499;-81
2021/05/13 14:45:18;;;;;;;2.70;1.13;;;15.40;99.90;;;;;;6183630;23;20017;-81
2021/05/13 14:47:53;;;;;;;5.13;0.80;;;15.30;99.90;;;;;;6184272;23;20013;-84
2021/05/13 14:50:27;;;;;;;2.92;0.85;;;15.10;99.90;;;;;;6182066;23;20013;-82
2021/05/13 14:52:54;;;;;;;7.65;1.00;;;14.90;99.90;;;;;;6184408;23;20020;-83
2021/05/13 14:55:21;;;;;;;5.72;1.17;;;14.80;99.90;;;;;;6181863;23;20017;-83
2021/05/13 14:57:49;;;;;;;2.70;0.80;;;14.90;99.90;;;;;;6184315;23;20029;-81
2021/05/13 15:00:19;;;;;;;4.95;0.88;;;14.80;99.90;;;;;;6183395;23;20091;-84
2021/05/13 15:02:47;;;;;;;3.80;0.90;;;14.80;99.90;;;;;;6183964;23;20030;-81
2021/05/13 15:05:14;;;;;;;3.90;1.50;;;14.90;99.90;;;;;;6181910;23;20024;-81
2021/05/13 15:07:41;;;;;;;4.55;1.20;;;15.00;99.90;;;;;;6182073;23;20017;-81
2021/05/13 15:10:09;;;;;;;5.88;1.40;;;15.10;99.90;;;;;;6181926;23;20013;-81
2021/05/13 15:12:37;;;;;;;3.78;1.20;;;15.10;99.90;;;;;;6183973;23;20017;-82
2021/05/13 15:15:04;;;;;;;5.57;1.50;;;15.10;99.90;;;;;;6182835;23;20021;-84
2021/05/13 15:17:31;;;;;;;4.00;1.30;;;15.00;99.90;;;;;;6171935;23;20032;-83
2021/05/13 15:19:58;;;;;;;3.63;1.15;;;15.10;99.90;;;;;;6182529;23;20021;-83
2021/05/13 15:22:25;;;;;;;3.10;0.90;;;15.00;99.90;;;;;;6181860;23;20021;-80
2021/05/13 15:24:52;;;;;;;7.28;1.10;;;14.80;99.90;;;;;;6184028;23;20017;-82
2021/05/13 15:27:19;;;;;;;5.47;1.50;;;14.80;99.90;;;;;;6182117;23;20452;-83
2021/05/13 15:29:46;;;;;;;5.13;1.40;;;14.70;99.90;;;;;;6183870;23;20075;-83
2021/05/13 15:32:14;;;;;;;4.32;1.30;;;14.70;99.90;;;;;;6184952;23;20021;-83
2021/05/13 15:34:41;;;;;;;4.60;1.20;;;14.70;99.90;;;;;;6184279;23;20031;-81
2021/05/13 15:37:10;;;;;;;3.85;1.02;;;14.70;99.90;;;;;;6185211;23;20071;-83
2021/05/13 15:39:41;;;;;;;4.13;0.93;;;14.60;99.90;;;;;;6184372;23;20021;-83
2021/05/13 15:42:08;;;;;;;6.05;1.33;;;14.60;99.90;;;;;;6185451;23;20020;-79
2021/05/13 15:44:34;;;;;;;3.50;1.30;;;14.60;99.90;;;;;;6185455;23;20017;-83
2021/05/13 15:47:01;;;;;;;6.35;1.50;;;14.70;99.90;;;;;;6184256;23;20032;-82
2021/05/13 15:49:28;;;;;;;6.80;1.58;;;14.70;99.90;;;;;;6171352;23;20344;-81
2021/05/13 15:51:55;;;;;;;6.63;1.65;;;14.80;99.90;;;;;;6185659;23;20017;-81
2021/05/13 15:54:22;;;;;;;4.60;1.35;;;14.80;99.90;;;;;;6183568;23;20025;-83
2021/05/13 15:56:49;;;;;;;6.60;1.35;;;14.80;99.90;;;;;;6185618;23;20455;-82
2021/05/13 15:59:16;;;;;;;5.35;1.38;;;14.90;99.90;;;;;;6183563;23;20028;-81
2021/05/13 16:01:43;;;;;;;5.70;1.33;;;14.90;99.90;;;;;;6184019;23;20024;-83
2021/05/13 16:04:11;;;;;;;4.95;1.30;;;15.10;99.90;;;;;;6183301;23;20071;-83
2021/05/13 16:06:39;;;;;;;6.30;1.33;;;15.00;99.90;;;;;;6185353;23;20017;-81
2021/05/13 16:09:07;;;;;;;6.40;1.30;;;15.10;99.90;;;;;;6185083;23;20067;-83
2021/05/13 16:11:36;;;;;;;5.38;1.40;;;14.90;99.90;;;;;;6185117;23;20396;-83
2021/05/13 16:14:03;;;;;;;3.97;1.17;;;14.80;99.90;;;;;;6185612;23;20021;-83
2021/05/13 16:16:30;;;;;;;4.22;1.30;;;14.70;99.90;;;;;;6184867;23;20017;-80
2021/05/13 16:18:57;;;;;;;2.75;0.80;;;14.70;99.90;;;;;;6183882;23;20024;-82
2021/05/13 16:21:24;;;;;;;4.72;1.17;;;14.70;99.90;;;;;;6184711;23;20024;-80
2021/05/13 16:23:51;;;;;;;4.32;1.70;;;14.70;99.90;;;;;;6185328;23;20013;-80
2021/05/13 16:26:18;;;;;;;5.70;1.20;;;14.60;99.90;;;;;;6184988;23;20017;-83
2021/05/13 16:28:45;;;;;;;3.63;1.05;;;14.60;99.90;;;;;;6185551;23;20013;-83
2021/05/13 16:31:12;;;;;;;7.40;1.40;;;14.70;99.90;;;;;;6183997;23;20364;-81
2021/05/13 16:33:39;;;;;;;5.65;1.13;;;14.80;99.90;;;;;;6185071;23;20017;-82
2021/05/13 16:36:06;;;;;;;7.00;1.27;;;14.70;99.90;;;;;;6183272;23;20025;-81
2021/05/13 16:38:33;;;;;;;5.53;1.10;;;14.70;99.90;;;;;;6185337;23;20105;-83
2021/05/13 16:41:00;;;;;;;6.32;1.20;;;14.70;99.90;;;;;;6183444;23;20020;-81
2021/05/13 16:43:27;;;;;;;5.72;1.30;;;14.70;99.90;;;;;;6184767;23;20017;-83
2021/05/13 16:45:53;;;;;;;5.72;1.23;;;14.60;99.90;;;;;;6185115;23;20021;-82
2021/05/13 16:48:21;;;;;;;5.00;1.58;;;14.50;99.90;;;;;;6184447;23;20071;-82
2021/05/13 16:50:49;;;;;;;7.35;1.42;;;14.50;99.90;;;;;;6185266;23;20095;-80
2021/05/13 16:53:16;;;;;;;6.22;1.50;;;14.50;99.90;;;;;;6183264;23;20017;-82
2021/05/13 16:55:44;;;;;;;6.68;1.27;;;14.40;99.90;;;;;;6184864;23;20075;-82
2021/05/13 16:58:11;;;;;;;5.90;1.42;;;14.40;99.90;;;;;;6184710;23;20021;-82
2021/05/13 17:00:38;;;;;;;7.55;1.80;;;14.40;99.90;;;;;;6183419;23;20017;-82
2021/05/13 17:03:06;;;;;;;6.22;1.20;;;14.30;99.90;;;;;;6183011;23;20527;-81
2021/05/13 17:05:36;;;;;;;5.43;1.10;;;14.30;99.90;;;;;;6185202;23;20017;-80
2021/05/13 17:08:03;;;;;;;4.35;1.08;;;14.40;99.90;;;;;;6185027;23;20017;-79
2021/05/13 17:10:31;;;;;;;3.40;0.90;;;14.40;99.90;;;;;;6184621;23;20392;-80
2021/05/13 17:13:01;;;;;;;7.63;1.27;;;14.30;99.90;;;;;;6184817;23;20021;-83
2021/05/13 17:15:28;;;;;;;4.35;1.20;;;14.20;99.90;;;;;;6184442;23;20076;-82
2021/05/13 17:17:56;;;;;;;5.00;1.33;;;14.10;99.90;;;;;;6183164;23;20406;-81
2021/05/13 17:20:28;;;;;;;5.93;1.30;;;14.20;99.90;;;;;;6184176;23;20092;-83
2021/05/13 17:22:55;;;;;;;3.67;1.00;;;14.20;99.90;;;;;;6184823;23;20076;-80
2021/05/13 17:25:22;;;;;;;5.65;1.13;;;14.20;99.90;;;;;;6184068;23;20052;-80
2021/05/13 17:27:50;;;;;;;7.38;1.17;;;14.20;99.90;;;;;;6183242;23;20388;-83
2021/05/13 17:30:19;;;;;;;4.75;1.17;;;14.20;99.90;;;;;;6182736;23;20079;-82
2021/05/13 17:32:46;;;;;;;8.80;1.52;;;14.30;99.90;;;;;;6182774;23;20013;-79
2021/05/13 17:35:14;;;;;;;5.93;1.20;;;14.30;99.90;;;;;;6184212;23;20024;-80
2021/05/13 17:37:42;;;;;;;5.82;1.20;;;14.30;99.90;;;;;;6184933;23;20017;-82
2021/05/13 17:40:11;;;;;;;7.43;1.35;;;14.30;99.90;;;;;;6182728;23;20468;-83
2021/05/13 17:42:39;;;;;;;5.00;1.30;;;14.50;99.90;;;;;;6182883;23;20068;-82
2021/05/13 17:45:07;;;;;;;5.72;1.15;;;14.60;99.90;;;;;;6184171;23;20013;-83
2021/05/13 17:47:35;;;;;;;6.07;1.10;;;14.60;99.90;;;;;;6183164;23;20024;-80
2021/05/13 17:50:08;;;;;;;5.03;1.10;;;14.70;99.90;;;;;;6184827;23;20047;-81
2021/05/13 17:52:35;;;;;;;3.80;1.27;;;14.80;99.90;;;;;;6182304;23;20440;-82
2021/05/13 17:55:04;;;;;;;5.57;1.20;;;15.30;99.90;;;;;;6184614;23;20392;-83
2021/05/13 17:57:31;;;;;;;;;;;15.70;99.90;;;;;;6171338;23;20013;-83
2021/05/13 18:00:01;;;;;;;4.13;1.15;;;15.90;99.90;;;;;;6184493;23;19939;-84
2021/05/13 18:02:28;;;;;;;4.68;1.13;;;16.40;99.90;;;;;;6182096;23;20380;-81
2021/05/13 18:04:57;;;;;;;4.25;1.30;;;16.80;99.90;;;;;;6183030;23;20072;-83
2021/05/13 18:07:24;;;;;;;5.57;1.15;;;17.20;99.90;;;;;;6183899;23;20072;-83
2021/05/13 18:09:50;;;;;;;6.55;1.55;;;17.50;99.90;;;;;;6184120;23;20028;-82
2021/05/13 18:12:17;;;;;;;4.07;1.35;;;17.50;99.90;;;;;;6182438;23;20336;-83
2021/05/13 18:14:44;;;;;;;5.57;1.45;;;17.60;99.90;;;;;;6184526;23;20025;-83
2021/05/13 18:17:11;;;;;;;7.38;1.33;;;18.00;99.90;;;;;;6183690;23;20071;-82
2021/05/13 18:19:38;;;;;;;5.35;1.20;;;18.10;99.90;;;;;;6184389;23;20020;-84
2021/05/13 18:22:05;;;;;;;3.72;1.15;;;18.30;99.90;;;;;;6182343;23;20017;-81
2021/05/13 18:24:32;;;;;;;5.82;1.60;;;18.90;99.90;;;;;;6182750;23;20067;-82
2021/05/13 18:26:59;;;;;;;6.75;1.33;;;19.00;99.70;;;;;;6184348;23;20084;-82
2021/05/13 18:29:28;;;;;;;5.18;1.30;;;19.10;99.70;;;;;;6183930;23;20023;-83
2021/05/13 18:31:54;;;;;;;6.70;1.85;;;19.40;99.40;;;;;;6183753;23;20017;-81
2021/05/13 18:34:22;;;;;;;5.38;1.52;;;19.40;98.60;;;;;;6182253;23;20096;-83
2021/05/13 18:36:49;;;;;;;5.15;1.50;;;19.40;98.60;;;;;;6184574;23;20068;-84
2021/05/13 18:39:17;;;;;;;6.32;1.58;;;19.50;98.20;;;;;;6183677;23;20013;-84
2021/05/13 18:41:44;;;;;;;7.23;1.57;;;19.60;98.10;;;;;;6184378;23;20017;-83
2021/05/13 18:44:11;;;;;;;6.05;1.70;;;19.70;97.90;;;;;;6183783;23;20452;-82
2021/05/13 18:46:38;;;;;;;6.50;1.55;;;19.70;97.00;;;;;;6184397;23;20353;-81
2021/05/13 18:49:05;;;;;;;6.65;1.52;;;19.40;97.50;;;;;;6182451;23;20020;-84
2021/05/13 18:51:32;;;;;;;5.53;1.60;;;19.20;97.40;;;;;;6182580;23;20064;-83
2021/05/13 18:54:04;;;;;;;6.72;1.48;;;19.30;97.60;;;;;;6182703;23;20083;-80
2021/05/13 18:56:30;;;;;;;4.43;1.48;;;19.00;97.50;;;;;;6172118;23;20013;-82
2021/05/13 18:58:57;;;;;;;6.78;1.50;;;18.60;97.70;;;;;;6184405;23;20071;-83
2021/05/13 19:01:24;;;;;;;9.43;1.67;;;18.50;97.80;;;;;;6181859;23;20025;-82
2021/05/13 19:03:52;;;;;;;7.70;1.92;;;18.30;97.90;;;;;;6184737;23;20024;-83
2021/05/13 19:06:19;;;;;;;7.85;1.92;;;17.90;98.20;;;;;;6185452;23;20017;-83
2021/05/13 19:08:51;;;;;;;8.25;1.70;;;17.70;98.40;;;;;;6186143;23;20013;-82
2021/05/13 19:11:18;;;;;;;4.80;1.70;;;17.10;99.00;;;;;;6185757;23;20036;-83
2021/05/13 19:13:45;;;;;;;7.97;1.80;;;16.70;99.60;;;;;;6186100;23;20028;-80
2021/05/13 19:16:12;;;;;;;6.45;2.05;;;15.90;99.90;;;;;;6185661;23;20013;-83
2021/05/13 19:18:40;;;;;;;8.82;1.90;;;15.30;99.90;;;;;;6185791;23;20021;-82
2021/05/13 19:21:07;;;;;;;9.63;2.17;;;14.90;99.90;;;;;;6185376;23;20071;-83
2021/05/13 19:23:34;;;;;;;9.15;2.08;;;14.40;99.90;;;;;;6185970;23;20017;-83
2021/05/13 19:26:02;;;;;;;6.47;1.88;;;14.10;99.90;;;;;;6185966;23;20075;-83
2021/05/13 19:28:29;;;;;;;8.13;1.77;;;13.70;99.90;;;;;;6185621;23;20031;-83
2021/05/13 19:36:24;;;;;;;7.25;2.22;;;12.90;99.90;;;;;;6185458;23;20017;-83
2021/05/13 19:38:54;;;;;;;9.23;2.40;;;12.60;99.90;;;;;;6184352;23;20021;-82
2021/05/13 19:41:21;;;;;;;8.27;1.75;;;12.50;99.90;;;;;;6185496;23;20087;-82
2021/05/13 19:43:48;;;;;;;9.15;2.00;;;12.30;99.90;;;;;;6185862;23;20013;-82
2021/05/13 19:46:14;;;;;;;5.97;1.70;;;12.10;99.90;;;;;;6185083;23;20396;-80
2021/05/13 19:48:42;;;;;;;11.02;2.03;;;12.00;99.90;;;;;;6185559;23;20017;-80
2021/05/13 19:51:11;;;;;;;6.07;1.90;;;11.80;99.90;;;;;;6185062;23;20017;-82
2021/05/13 19:53:38;;;;;;;9.98;1.65;;;11.60;99.90;;;;;;6184308;23;20075;-81
2021/05/13 19:56:08;;;;;;;5.15;1.50;;;11.50;99.90;;;;;;6183791;23;20468;-82
2021/05/13 19:58:40;;;;;;;8.63;1.48;;;11.40;99.90;;;;;;6184042;23;20013;-84
2021/05/13 20:01:07;;;;;;;6.40;2.28;;;11.30;99.90;;;;;;6183174;23;20076;-83
2021/05/13 20:11:06;;;;;;;4.95;1.40;;;11.00;99.90;;;;;;6185625;23;20538;-82
2021/05/13 20:13:39;;;;;;;10.07;1.95;;;10.90;99.90;;;;;;6183610;23;20013;-83
2021/05/13 20:16:06;;;;;;;5.20;1.50;;;10.80;99.90;;;;;;6184546;23;20025;-83
2021/05/13 20:18:35;;;;;;;7.30;1.65;;;10.80;99.90;;;;;;6185522;23;20094;-83
2021/05/13 20:21:03;;;;;;;;;;;10.70;99.90;;;;;;6184282;23;20013;-83
2021/05/13 20:23:30;;;;;;;10.00;1.85;;;10.60;99.90;;;;;;6183624;23;19923;-83
2021/05/13 20:26:15;;;;;;;11.50;1.80;;;10.60;99.90;;;;;;6183708;23;20013;-83
2021/05/13 20:28:47;;;;;;;6.38;1.77;;;10.50;99.90;;;;;;6183514;23;20021;-82
2021/05/13 20:31:18;;;;;;;9.20;1.77;;;10.50;99.90;;;;;;6183445;23;20020;-82
2021/05/13 20:33:46;;;;;;;10.90;1.90;;;10.50;99.90;;;;;;6124318;23;20020;-82
2021/05/13 20:36:13;;;;;;;8.75;2.00;;;10.50;99.90;;;;;;6125446;23;20543;-82
2021/05/13 20:38:42;;;;;;;8.00;1.60;;;10.40;99.90;;;;;;6124558;23;20040;-82
2021/05/13 20:41:10;;;;;;;;;;;10.40;99.90;;;;;;6125778;23;20335;-82
2021/05/13 20:43:38;;;;;;;9.48;2.30;;;10.30;99.90;;;;;;6124506;23;19920;-82
2021/05/13 20:46:05;;;;;;;7.38;1.77;;;10.30;99.90;;;;;;6123872;23;20077;-83
2021/05/13 20:48:35;;;;;;;10.57;1.70;;;10.20;99.90;;;;;;6124443;23;20018;-81
2021/05/13 20:59:18;;;;;;;7.53;1.60;;;10.20;99.90;;;;;;6125241;23;20025;-82